LZIB Airport Information

Runway Information
Runway 04 Length 9515 ft width 197 ft
Elevation 436 ft Threshold 0 ft Heading 44
Runway 22 Length 9515 ft Width 197 ft
Elevation 430 ft Threshold 0 ft Heading 224
Runway 13 Length 10466 ft width 148 ft
Elevation 433 ft Threshold 0 ft Heading 134
Runway 31 Length 10466 ft Width 148 ft
Elevation 434 ft Threshold 777 ft Heading 314
Airport Frequencies
Type APP Name APP Frequency 120.9 MHZ
Type ATIS Name ATIS Frequency 128.65 MHZ
Type TWR Name TWR Frequency 118.3 MHZ
Airport Navaids
Type VOR-DME Name Janovce Frequency 110800 KHZ
Type NDB Name Stefanik South Frequency 330 KHZ
Type NDB Name Stefanik North Frequency 391 KHZ
Airport Weather Information & NOTAM
ADDS - METARS form results

(2052 UTC 15 October 2021)
Data provider http://aviationweather.gov/metar/data/
 
METAR text: LZIB 152030Z 04005KT CAVOK 07/06 Q1018
Conditions at: LZIB (BRATISLAVA IVANK, SK) observed 2030 UTC 15 October 2021
Temperature: 7.0°C (45°F)
Dewpoint: 6.0°C (43°F) [RH = 93%]
Pressure (altimeter): 30.06 inches Hg (1018.0 mb)
Winds: from the NE (40 degrees) at 6 MPH (5 knots; 2.6 m/s)
Visibility: 6 or more miles (10+ km)
Ceiling: ceiling and visibility are OK
Clouds: unknown
Weather: no significant weather observed at this time

METAR text: LZIB 152000Z 36004KT CAVOK 08/06 Q1018
Conditions at: LZIB (BRATISLAVA IVANK, SK) observed 2000 UTC 15 October 2021
Temperature: 8.0°C (46°F)
Dewpoint: 6.0°C (43°F) [RH = 87%]
Pressure (altimeter): 30.06 inches Hg (1018.0 mb)
Winds: from the N (360 degrees) at 5 MPH (4 knots; 2.1 m/s)
Visibility: 6 or more miles (10+ km)
Ceiling: ceiling and visibility are OK
Clouds: unknown
Weather: no significant weather observed at this time

Forecast for: LZIB (BRATISLAVA IVANK, SK)
Text: TAF LZIB 151700Z 1518/1618 13004KT CAVOK
Forecast period: 1800 to 2200 UTC 15 October 2021
Forecast type: FROM: standard forecast or significant change
Winds: from the SE (130 degrees) at 5 MPH (4 knots; 2.1 m/s)
Visibility: 6 or more miles (10+ km)
Ceiling: unknown
Clouds: missing
Weather: NSW  (no significant weather)
Text: BECMG 1522/1600 9999 BKN030
Forecast period: 2200 UTC 15 October 2021 to 0500 UTC 16 October 2021
Forecast type: BECOMING: Conditions expected to become as follows by 0000 UTC 16 October 2021
Winds: from the SE (130 degrees) at 5 MPH (4 knots; 2.1 m/s)
Visibility: 6 or more miles (10+ km)
Ceiling: 3000 feet AGL
Clouds: broken clouds at 3000 feet AGL
Weather: NSW  (no significant weather)
Text: BECMG 1605/1607 33007KT CAVOK
Forecast period: 0500 to 1800 UTC 16 October 2021
Forecast type: BECOMING: Conditions expected to become as follows by 0700 UTC 16 October 2021
Winds: from the NNW (330 degrees) at 8 MPH (7 knots; 3.6 m/s)
Visibility: 6 or more miles (10+ km)
Ceiling: unknown
Clouds: missing
Weather: NSW  (no significant weather)